sensor_id;sensor_type;location;lat;lon;timestamp;P1;durP1;ratioP1;P2;durP2;ratioP2
7707;SDS011;3896;48.758;8.888;2022-11-15T00:01:28;3.23;;;2.10;;
7707;SDS011;3896;48.758;8.888;2022-11-15T00:03:53;5.83;;;3.43;;
7707;SDS011;3896;48.758;8.888;2022-11-15T00:06:19;5.30;;;2.93;;
7707;SDS011;3896;48.758;8.888;2022-11-15T00:08:44;4.30;;;2.43;;
7707;SDS011;3896;48.758;8.888;2022-11-15T00:11:11;3.93;;;2.40;;
7707;SDS011;3896;48.758;8.888;2022-11-15T00:13:37;2.93;;;2.20;;
7707;SDS011;3896;48.758;8.888;2022-11-15T00:16:03;2.63;;;2.23;;
7707;SDS011;3896;48.758;8.888;2022-11-15T00:18:29;2.13;;;1.60;;
7707;SDS011;3896;48.758;8.888;2022-11-15T00:20:56;2.57;;;2.03;;
7707;SDS011;3896;48.758;8.888;2022-11-15T00:23:27;2.87;;;2.00;;
7707;SDS011;3896;48.758;8.888;2022-11-15T00:25:56;2.23;;;1.90;;
7707;SDS011;3896;48.758;8.888;2022-11-15T00:28:23;3.17;;;2.07;;
7707;SDS011;3896;48.758;8.888;2022-11-15T00:30:49;2.67;;;2.23;;
7707;SDS011;3896;48.758;8.888;2022-11-15T00:33:15;3.23;;;2.10;;
7707;SDS011;3896;48.758;8.888;2022-11-15T00:35:40;3.67;;;3.03;;
7707;SDS011;3896;48.758;8.888;2022-11-15T00:38:06;2.40;;;2.10;;
7707;SDS011;3896;48.758;8.888;2022-11-15T00:40:32;3.50;;;2.47;;
7707;SDS011;3896;48.758;8.888;2022-11-15T00:42:57;5.63;;;2.30;;
7707;SDS011;3896;48.758;8.888;2022-11-15T00:45:23;3.10;;;2.00;;
7707;SDS011;3896;48.758;8.888;2022-11-15T00:47:50;3.47;;;2.23;;
7707;SDS011;3896;48.758;8.888;2022-11-15T00:50:16;3.83;;;2.10;;
7707;SDS011;3896;48.758;8.888;2022-11-15T00:52:42;4.00;;;2.37;;
7707;SDS011;3896;48.758;8.888;2022-11-15T00:55:17;3.73;;;2.43;;
7707;SDS011;3896;48.758;8.888;2022-11-15T00:57:43;3.47;;;3.17;;
7707;SDS011;3896;48.758;8.888;2022-11-15T01:00:09;3.57;;;2.37;;
7707;SDS011;3896;48.758;8.888;2022-11-15T01:02:35;3.03;;;2.40;;
7707;SDS011;3896;48.758;8.888;2022-11-15T01:05:01;3.93;;;2.23;;
7707;SDS011;3896;48.758;8.888;2022-11-15T01:07:27;3.17;;;2.03;;
7707;SDS011;3896;48.758;8.888;2022-11-15T01:09:53;2.47;;;2.27;;
7707;SDS011;3896;48.758;8.888;2022-11-15T01:12:18;2.33;;;2.13;;
7707;SDS011;3896;48.758;8.888;2022-11-15T01:14:44;3.20;;;2.20;;
7707;SDS011;3896;48.758;8.888;2022-11-15T01:17:10;6.50;;;2.77;;
7707;SDS011;3896;48.758;8.888;2022-11-15T01:19:35;1.80;;;1.70;;
7707;SDS011;3896;48.758;8.888;2022-11-15T01:22:01;2.73;;;1.83;;
7707;SDS011;3896;48.758;8.888;2022-11-15T01:24:27;2.00;;;1.80;;
7707;SDS011;3896;48.758;8.888;2022-11-15T01:26:53;2.90;;;2.00;;
7707;SDS011;3896;48.758;8.888;2022-11-15T01:29:18;3.57;;;1.73;;
7707;SDS011;3896;48.758;8.888;2022-11-15T01:31:44;2.20;;;2.00;;
7707;SDS011;3896;48.758;8.888;2022-11-15T01:34:09;1.87;;;1.77;;
7707;SDS011;3896;48.758;8.888;2022-11-15T01:36:35;2.83;;;1.90;;
7707;SDS011;3896;48.758;8.888;2022-11-15T01:39:01;3.13;;;1.93;;
7707;SDS011;3896;48.758;8.888;2022-11-15T01:41:31;2.43;;;2.03;;
7707;SDS011;3896;48.758;8.888;2022-11-15T01:47:02;3.20;;;2.30;;
7707;SDS011;3896;48.758;8.888;2022-11-15T01:49:32;2.40;;;1.90;;
7707;SDS011;3896;48.758;8.888;2022-11-15T01:52:00;3.03;;;2.30;;
7707;SDS011;3896;48.758;8.888;2022-11-15T01:54:28;2.43;;;2.23;;
7707;SDS011;3896;48.758;8.888;2022-11-15T01:56:56;3.13;;;2.33;;
7707;SDS011;3896;48.758;8.888;2022-11-15T01:59:28;2.43;;;2.10;;
7707;SDS011;3896;48.758;8.888;2022-11-15T02:01:54;2.30;;;2.10;;
7707;SDS011;3896;48.758;8.888;2022-11-15T02:04:21;2.57;;;2.10;;
7707;SDS011;3896;48.758;8.888;2022-11-15T02:06:50;3.43;;;2.20;;
7707;SDS011;3896;48.758;8.888;2022-11-15T02:09:16;2.90;;;2.20;;
7707;SDS011;3896;48.758;8.888;2022-11-15T02:11:42;3.50;;;2.50;;
7707;SDS011;3896;48.758;8.888;2022-11-15T02:14:10;3.53;;;2.00;;
7707;SDS011;3896;48.758;8.888;2022-11-15T02:16:51;2.47;;;2.23;;
7707;SDS011;3896;48.758;8.888;2022-11-15T02:28:40;2.43;;;2.00;;
7707;SDS011;3896;48.758;8.888;2022-11-15T02:31:14;2.20;;;2.00;;
7707;SDS011;3896;48.758;8.888;2022-11-15T02:34:00;2.20;;;2.00;;
7707;SDS011;3896;48.758;8.888;2022-11-15T02:39:49;3.20;;;2.00;;
7707;SDS011;3896;48.758;8.888;2022-11-15T02:42:19;4.03;;;3.07;;
7707;SDS011;3896;48.758;8.888;2022-11-15T02:45:08;2.63;;;2.17;;
7707;SDS011;3896;48.758;8.888;2022-11-15T02:47:41;2.53;;;2.20;;
7707;SDS011;3896;48.758;8.888;2022-11-15T02:50:10;2.03;;;1.83;;
7707;SDS011;3896;48.758;8.888;2022-11-15T02:52:38;2.37;;;2.17;;
7707;SDS011;3896;48.758;8.888;2022-11-15T02:55:03;4.23;;;2.13;;
7707;SDS011;3896;48.758;8.888;2022-11-15T03:00:17;3.60;;;2.73;;
7707;SDS011;3896;48.758;8.888;2022-11-15T03:08:22;2.40;;;2.20;;
7707;SDS011;3896;48.758;8.888;2022-11-15T03:13:34;2.80;;;2.20;;
7707;SDS011;3896;48.758;8.888;2022-11-15T03:19:14;3.43;;;2.20;;
7707;SDS011;3896;48.758;8.888;2022-11-15T03:21:53;3.47;;;2.17;;
7707;SDS011;3896;48.758;8.888;2022-11-15T03:24:20;3.10;;;2.10;;
7707;SDS011;3896;48.758;8.888;2022-11-15T03:26:50;2.60;;;2.10;;
7707;SDS011;3896;48.758;8.888;2022-11-15T03:29:22;3.07;;;1.67;;
7707;SDS011;3896;48.758;8.888;2022-11-15T03:31:52;2.67;;;2.43;;
7707;SDS011;3896;48.758;8.888;2022-11-15T03:37:12;3.03;;;2.10;;
7707;SDS011;3896;48.758;8.888;2022-11-15T03:39:41;2.30;;;1.83;;
7707;SDS011;3896;48.758;8.888;2022-11-15T03:49:59;2.23;;;2.03;;
7707;SDS011;3896;48.758;8.888;2022-11-15T03:52:47;2.30;;;2.10;;
7707;SDS011;3896;48.758;8.888;2022-11-15T03:55:15;3.60;;;2.27;;
7707;SDS011;3896;48.758;8.888;2022-11-15T03:57:43;2.47;;;1.83;;
7707;SDS011;3896;48.758;8.888;2022-11-15T04:00:09;2.10;;;1.90;;
7707;SDS011;3896;48.758;8.888;2022-11-15T04:02:36;3.13;;;2.33;;
7707;SDS011;3896;48.758;8.888;2022-11-15T04:05:01;3.77;;;2.80;;
7707;SDS011;3896;48.758;8.888;2022-11-15T04:07:27;4.77;;;2.73;;
7707;SDS011;3896;48.758;8.888;2022-11-15T04:09:53;3.50;;;2.80;;
7707;SDS011;3896;48.758;8.888;2022-11-15T04:12:28;5.17;;;2.80;;
7707;SDS011;3896;48.758;8.888;2022-11-15T04:15:02;3.73;;;3.03;;
7707;SDS011;3896;48.758;8.888;2022-11-15T04:17:33;3.37;;;3.03;;
7707;SDS011;3896;48.758;8.888;2022-11-15T04:19:59;6.77;;;3.50;;
7707;SDS011;3896;48.758;8.888;2022-11-15T04:22:43;4.37;;;3.20;;
7707;SDS011;3896;48.758;8.888;2022-11-15T04:25:28;4.67;;;3.70;;
7707;SDS011;3896;48.758;8.888;2022-11-15T04:27:54;5.33;;;3.13;;
7707;SDS011;3896;48.758;8.888;2022-11-15T04:30:19;3.07;;;2.70;;
7707;SDS011;3896;48.758;8.888;2022-11-15T04:32:45;2.93;;;2.63;;
7707;SDS011;3896;48.758;8.888;2022-11-15T04:35:10;3.63;;;3.00;;
7707;SDS011;3896;48.758;8.888;2022-11-15T04:37:36;2.03;;;1.93;;
7707;SDS011;3896;48.758;8.888;2022-11-15T04:40:02;5.03;;;2.20;;
7707;SDS011;3896;48.758;8.888;2022-11-15T04:42:28;2.30;;;2.10;;
7707;SDS011;3896;48.758;8.888;2022-11-15T04:44:53;3.50;;;2.13;;
7707;SDS011;3896;48.758;8.888;2022-11-15T04:47:19;2.17;;;1.97;;
7707;SDS011;3896;48.758;8.888;2022-11-15T04:49:44;2.70;;;2.13;;
7707;SDS011;3896;48.758;8.888;2022-11-15T04:52:10;2.53;;;2.33;;
7707;SDS011;3896;48.758;8.888;2022-11-15T04:54:36;2.43;;;2.23;;
7707;SDS011;3896;48.758;8.888;2022-11-15T04:57:01;2.97;;;1.97;;
7707;SDS011;3896;48.758;8.888;2022-11-15T04:59:27;2.30;;;2.10;;
7707;SDS011;3896;48.758;8.888;2022-11-15T05:01:53;3.33;;;2.67;;
7707;SDS011;3896;48.758;8.888;2022-11-15T05:04:18;4.03;;;2.63;;
7707;SDS011;3896;48.758;8.888;2022-11-15T05:06:44;3.00;;;2.20;;
7707;SDS011;3896;48.758;8.888;2022-11-15T05:09:14;2.80;;;2.17;;
7707;SDS011;3896;48.758;8.888;2022-11-15T05:11:40;3.80;;;2.60;;
7707;SDS011;3896;48.758;8.888;2022-11-15T05:14:06;2.90;;;2.40;;
7707;SDS011;3896;48.758;8.888;2022-11-15T05:16:31;3.73;;;2.97;;
7707;SDS011;3896;48.758;8.888;2022-11-15T05:18:57;4.20;;;2.70;;
7707;SDS011;3896;48.758;8.888;2022-11-15T05:21:22;5.77;;;3.70;;
7707;SDS011;3896;48.758;8.888;2022-11-15T05:23:48;5.13;;;2.77;;
7707;SDS011;3896;48.758;8.888;2022-11-15T05:26:14;3.17;;;2.70;;
7707;SDS011;3896;48.758;8.888;2022-11-15T05:28:42;3.80;;;3.10;;
7707;SDS011;3896;48.758;8.888;2022-11-15T05:31:09;3.77;;;3.23;;
7707;SDS011;3896;48.758;8.888;2022-11-15T05:33:37;3.27;;;2.50;;
7707;SDS011;3896;48.758;8.888;2022-11-15T05:36:09;4.70;;;2.80;;
7707;SDS011;3896;48.758;8.888;2022-11-15T05:38:40;3.13;;;2.83;;
7707;SDS011;3896;48.758;8.888;2022-11-15T05:41:07;2.87;;;2.57;;
7707;SDS011;3896;48.758;8.888;2022-11-15T05:43:33;2.50;;;2.30;;
7707;SDS011;3896;48.758;8.888;2022-11-15T05:46:01;5.27;;;3.37;;
7707;SDS011;3896;48.758;8.888;2022-11-15T05:48:28;3.60;;;2.67;;
7707;SDS011;3896;48.758;8.888;2022-11-15T05:50:54;2.33;;;2.13;;
7707;SDS011;3896;48.758;8.888;2022-11-15T05:53:21;3.07;;;2.43;;
7707;SDS011;3896;48.758;8.888;2022-11-15T05:55:49;4.63;;;2.73;;
7707;SDS011;3896;48.758;8.888;2022-11-15T05:58:17;3.27;;;2.37;;
7707;SDS011;3896;48.758;8.888;2022-11-15T06:00:43;3.47;;;2.67;;
7707;SDS011;3896;48.758;8.888;2022-11-15T06:05:51;2.60;;;1.97;;
7707;SDS011;3896;48.758;8.888;2022-11-15T06:08:17;4.20;;;2.67;;
7707;SDS011;3896;48.758;8.888;2022-11-15T06:10:42;5.47;;;2.60;;
7707;SDS011;3896;48.758;8.888;2022-11-15T06:13:08;3.30;;;2.30;;
7707;SDS011;3896;48.758;8.888;2022-11-15T06:15:34;3.53;;;2.47;;
7707;SDS011;3896;48.758;8.888;2022-11-15T06:17:59;4.20;;;2.40;;
7707;SDS011;3896;48.758;8.888;2022-11-15T06:20:26;3.27;;;2.67;;
7707;SDS011;3896;48.758;8.888;2022-11-15T06:22:56;4.07;;;2.77;;
7707;SDS011;3896;48.758;8.888;2022-11-15T06:25:26;4.20;;;3.07;;
7707;SDS011;3896;48.758;8.888;2022-11-15T06:27:53;6.07;;;3.00;;
7707;SDS011;3896;48.758;8.888;2022-11-15T06:30:21;2.80;;;2.50;;
7707;SDS011;3896;48.758;8.888;2022-11-15T06:32:47;5.93;;;3.17;;
7707;SDS011;3896;48.758;8.888;2022-11-15T06:35:13;2.83;;;2.53;;
7707;SDS011;3896;48.758;8.888;2022-11-15T06:37:39;3.50;;;2.37;;
7707;SDS011;3896;48.758;8.888;2022-11-15T06:40:05;2.80;;;2.27;;
7707;SDS011;3896;48.758;8.888;2022-11-15T06:42:32;2.47;;;2.27;;
7707;SDS011;3896;48.758;8.888;2022-11-15T06:44:58;3.83;;;2.40;;
7707;SDS011;3896;48.758;8.888;2022-11-15T06:47:23;4.03;;;2.37;;
7707;SDS011;3896;48.758;8.888;2022-11-15T06:49:49;4.37;;;2.67;;
7707;SDS011;3896;48.758;8.888;2022-11-15T06:52:14;2.33;;;2.10;;
7707;SDS011;3896;48.758;8.888;2022-11-15T06:54:43;2.33;;;2.13;;
7707;SDS011;3896;48.758;8.888;2022-11-15T06:57:08;4.53;;;3.50;;
7707;SDS011;3896;48.758;8.888;2022-11-15T06:59:34;5.37;;;3.40;;
7707;SDS011;3896;48.758;8.888;2022-11-15T07:02:00;5.20;;;4.13;;
7707;SDS011;3896;48.758;8.888;2022-11-15T07:04:25;6.63;;;4.67;;
7707;SDS011;3896;48.758;8.888;2022-11-15T07:06:51;9.00;;;4.40;;
7707;SDS011;3896;48.758;8.888;2022-11-15T07:09:17;5.90;;;4.40;;
7707;SDS011;3896;48.758;8.888;2022-11-15T07:11:42;5.20;;;4.40;;
7707;SDS011;3896;48.758;8.888;2022-11-15T07:14:08;8.20;;;4.13;;
7707;SDS011;3896;48.758;8.888;2022-11-15T07:16:33;6.57;;;4.53;;
7707;SDS011;3896;48.758;8.888;2022-11-15T07:18:59;10.70;;;4.73;;
7707;SDS011;3896;48.758;8.888;2022-11-15T07:21:25;7.57;;;4.57;;
7707;SDS011;3896;48.758;8.888;2022-11-15T07:23:50;7.60;;;4.80;;
7707;SDS011;3896;48.758;8.888;2022-11-15T07:26:16;6.87;;;4.63;;
7707;SDS011;3896;48.758;8.888;2022-11-15T07:28:42;6.63;;;5.17;;
7707;SDS011;3896;48.758;8.888;2022-11-15T07:31:08;6.43;;;4.67;;
7707;SDS011;3896;48.758;8.888;2022-11-15T07:33:34;5.47;;;4.73;;
7707;SDS011;3896;48.758;8.888;2022-11-15T07:36:00;8.37;;;4.33;;
7707;SDS011;3896;48.758;8.888;2022-11-15T07:38:27;6.77;;;4.37;;
7707;SDS011;3896;48.758;8.888;2022-11-15T07:40:56;6.87;;;4.80;;
7707;SDS011;3896;48.758;8.888;2022-11-15T07:43:23;7.13;;;5.50;;
7707;SDS011;3896;48.758;8.888;2022-11-15T07:45:49;15.77;;;5.97;;
7707;SDS011;3896;48.758;8.888;2022-11-15T07:48:14;12.07;;;5.83;;
7707;SDS011;3896;48.758;8.888;2022-11-15T07:50:40;8.73;;;5.03;;
7707;SDS011;3896;48.758;8.888;2022-11-15T07:53:07;6.73;;;3.87;;
7707;SDS011;3896;48.758;8.888;2022-11-15T07:55:34;7.73;;;4.40;;
7707;SDS011;3896;48.758;8.888;2022-11-15T07:58:03;10.50;;;4.27;;
7707;SDS011;3896;48.758;8.888;2022-11-15T08:00:30;4.27;;;3.83;;
7707;SDS011;3896;48.758;8.888;2022-11-15T08:05:32;11.53;;;4.70;;
7707;SDS011;3896;48.758;8.888;2022-11-15T08:07:59;6.53;;;4.03;;
7707;SDS011;3896;48.758;8.888;2022-11-15T08:10:25;7.40;;;3.87;;
7707;SDS011;3896;48.758;8.888;2022-11-15T08:13:04;4.00;;;2.70;;
7707;SDS011;3896;48.758;8.888;2022-11-15T08:15:32;3.13;;;2.73;;
7707;SDS011;3896;48.758;8.888;2022-11-15T08:17:59;3.87;;;2.80;;
7707;SDS011;3896;48.758;8.888;2022-11-15T08:20:30;3.50;;;2.27;;
7707;SDS011;3896;48.758;8.888;2022-11-15T08:22:57;6.17;;;3.07;;
7707;SDS011;3896;48.758;8.888;2022-11-15T08:25:24;2.83;;;2.30;;
7707;SDS011;3896;48.758;8.888;2022-11-15T08:27:54;4.23;;;2.57;;
7707;SDS011;3896;48.758;8.888;2022-11-15T08:30:27;4.07;;;2.30;;
7707;SDS011;3896;48.758;8.888;2022-11-15T08:32:54;3.63;;;2.27;;
7707;SDS011;3896;48.758;8.888;2022-11-15T08:35:22;3.27;;;2.40;;
7707;SDS011;3896;48.758;8.888;2022-11-15T08:37:48;5.70;;;2.50;;
7707;SDS011;3896;48.758;8.888;2022-11-15T08:40:14;2.80;;;2.23;;
7707;SDS011;3896;48.758;8.888;2022-11-15T08:42:40;3.00;;;2.40;;
7707;SDS011;3896;48.758;8.888;2022-11-15T08:45:06;2.40;;;2.20;;
7707;SDS011;3896;48.758;8.888;2022-11-15T08:47:33;3.27;;;2.97;;
7707;SDS011;3896;48.758;8.888;2022-11-15T08:49:59;3.13;;;2.30;;
7707;SDS011;3896;48.758;8.888;2022-11-15T08:52:25;2.60;;;2.40;;
7707;SDS011;3896;48.758;8.888;2022-11-15T08:54:51;2.67;;;2.47;;
7707;SDS011;3896;48.758;8.888;2022-11-15T08:57:16;2.53;;;2.00;;
7707;SDS011;3896;48.758;8.888;2022-11-15T08:59:42;2.60;;;2.33;;
7707;SDS011;3896;48.758;8.888;2022-11-15T09:02:12;3.43;;;2.57;;
7707;SDS011;3896;48.758;8.888;2022-11-15T09:04:42;2.33;;;2.00;;
7707;SDS011;3896;48.758;8.888;2022-11-15T09:07:11;2.10;;;1.90;;
7707;SDS011;3896;48.758;8.888;2022-11-15T09:09:37;5.93;;;2.73;;
7707;SDS011;3896;48.758;8.888;2022-11-15T09:12:03;3.63;;;2.43;;
7707;SDS011;3896;48.758;8.888;2022-11-15T09:14:29;6.00;;;2.43;;
7707;SDS011;3896;48.758;8.888;2022-11-15T09:16:55;4.67;;;2.57;;
7707;SDS011;3896;48.758;8.888;2022-11-15T09:19:21;2.73;;;2.10;;
7707;SDS011;3896;48.758;8.888;2022-11-15T09:21:47;3.00;;;1.83;;
7707;SDS011;3896;48.758;8.888;2022-11-15T09:24:12;2.13;;;1.97;;
7707;SDS011;3896;48.758;8.888;2022-11-15T09:26:38;2.57;;;2.37;;
7707;SDS011;3896;48.758;8.888;2022-11-15T09:29:04;2.40;;;1.80;;
7707;SDS011;3896;48.758;8.888;2022-11-15T09:31:29;2.00;;;1.90;;
7707;SDS011;3896;48.758;8.888;2022-11-15T09:33:55;2.33;;;1.60;;
7707;SDS011;3896;48.758;8.888;2022-11-15T09:36:21;1.87;;;1.77;;
7707;SDS011;3896;48.758;8.888;2022-11-15T09:38:46;2.13;;;1.93;;
7707;SDS011;3896;48.758;8.888;2022-11-15T09:44:01;3.90;;;2.07;;
7707;SDS011;3896;48.758;8.888;2022-11-15T09:46:47;2.53;;;1.80;;
7707;SDS011;3896;48.758;8.888;2022-11-15T09:49:28;4.10;;;2.00;;
7707;SDS011;3896;48.758;8.888;2022-11-15T09:51:55;2.93;;;2.17;;
7707;SDS011;3896;48.758;8.888;2022-11-15T09:54:35;4.23;;;2.30;;
7707;SDS011;3896;48.758;8.888;2022-11-15T09:57:14;2.70;;;1.67;;
7707;SDS011;3896;48.758;8.888;2022-11-15T10:05:20;3.43;;;2.57;;
7707;SDS011;3896;48.758;8.888;2022-11-15T10:10:43;1.90;;;1.80;;
7707;SDS011;3896;48.758;8.888;2022-11-15T10:13:31;2.90;;;2.07;;
7707;SDS011;3896;48.758;8.888;2022-11-15T10:19:00;3.83;;;2.13;;
7707;SDS011;3896;48.758;8.888;2022-11-15T10:24:34;1.70;;;1.53;;
7707;SDS011;3896;48.758;8.888;2022-11-15T10:27:03;10.63;;;2.33;;
7707;SDS011;3896;48.758;8.888;2022-11-15T10:29:42;5.37;;;1.67;;
7707;SDS011;3896;48.758;8.888;2022-11-15T10:32:12;2.60;;;1.90;;
7707;SDS011;3896;48.758;8.888;2022-11-15T10:34:40;2.10;;;1.90;;
7707;SDS011;3896;48.758;8.888;2022-11-15T10:37:06;2.37;;;2.00;;
7707;SDS011;3896;48.758;8.888;2022-11-15T10:39:32;2.07;;;1.87;;
7707;SDS011;3896;48.758;8.888;2022-11-15T10:44:52;1.80;;;1.53;;
7707;SDS011;3896;48.758;8.888;2022-11-15T10:47:25;1.77;;;1.67;;
7707;SDS011;3896;48.758;8.888;2022-11-15T10:50:00;3.33;;;1.90;;
7707;SDS011;3896;48.758;8.888;2022-11-15T10:52:28;1.90;;;1.80;;
7707;SDS011;3896;48.758;8.888;2022-11-15T10:54:57;2.47;;;2.10;;
7707;SDS011;3896;48.758;8.888;2022-11-15T10:57:35;2.40;;;2.00;;
7707;SDS011;3896;48.758;8.888;2022-11-15T11:00:07;2.97;;;1.90;;
7707;SDS011;3896;48.758;8.888;2022-11-15T11:05:02;2.70;;;1.67;;
7707;SDS011;3896;48.758;8.888;2022-11-15T11:07:32;3.67;;;2.33;;
7707;SDS011;3896;48.758;8.888;2022-11-15T11:10:04;3.93;;;1.83;;
7707;SDS011;3896;48.758;8.888;2022-11-15T11:12:39;1.90;;;1.80;;
7707;SDS011;3896;48.758;8.888;2022-11-15T11:15:09;2.03;;;1.83;;
7707;SDS011;3896;48.758;8.888;2022-11-15T11:20:37;2.57;;;1.80;;
7707;SDS011;3896;48.758;8.888;2022-11-15T11:37:24;2.00;;;1.80;;
7707;SDS011;3896;48.758;8.888;2022-11-15T11:40:14;2.30;;;2.03;;
7707;SDS011;3896;48.758;8.888;2022-11-15T11:42:55;3.10;;;2.30;;
7707;SDS011;3896;48.758;8.888;2022-11-15T11:48:43;2.33;;;1.80;;
7707;SDS011;3896;48.758;8.888;2022-11-15T11:51:22;2.47;;;2.23;;
7707;SDS011;3896;48.758;8.888;2022-11-15T11:56:44;4.30;;;2.60;;
7707;SDS011;3896;48.758;8.888;2022-11-15T12:01:54;4.93;;;1.90;;
7707;SDS011;3896;48.758;8.888;2022-11-15T12:07:02;1.87;;;1.77;;
7707;SDS011;3896;48.758;8.888;2022-11-15T12:09:46;2.70;;;1.77;;
7707;SDS011;3896;48.758;8.888;2022-11-15T12:17:33;2.60;;;2.00;;
7707;SDS011;3896;48.758;8.888;2022-11-15T12:19:59;3.30;;;1.77;;
7707;SDS011;3896;48.758;8.888;2022-11-15T12:25:30;3.13;;;1.63;;
7707;SDS011;3896;48.758;8.888;2022-11-15T12:27:59;2.13;;;1.67;;
7707;SDS011;3896;48.758;8.888;2022-11-15T12:30:42;3.03;;;1.70;;
7707;SDS011;3896;48.758;8.888;2022-11-15T12:33:55;4.47;;;2.23;;
7707;SDS011;3896;48.758;8.888;2022-11-15T12:36:10;2.20;;;2.00;;
7707;SDS011;3896;48.758;8.888;2022-11-15T12:38:58;3.37;;;1.90;;
7707;SDS011;3896;48.758;8.888;2022-11-15T12:41:35;5.67;;;2.20;;
7707;SDS011;3896;48.758;8.888;2022-11-15T12:44:03;4.03;;;2.40;;
7707;SDS011;3896;48.758;8.888;2022-11-15T12:51:22;4.07;;;2.50;;
7707;SDS011;3896;48.758;8.888;2022-11-15T13:02:28;3.17;;;2.13;;
7707;SDS011;3896;48.758;8.888;2022-11-15T13:17:42;2.20;;;2.00;;
7707;SDS011;3896;48.758;8.888;2022-11-15T13:22:44;2.80;;;2.43;;
7707;SDS011;3896;48.758;8.888;2022-11-15T13:30:51;3.50;;;1.93;;
7707;SDS011;3896;48.758;8.888;2022-11-15T13:33:24;2.33;;;2.00;;
7707;SDS011;3896;48.758;8.888;2022-11-15T13:36:02;2.13;;;1.93;;
7707;SDS011;3896;48.758;8.888;2022-11-15T13:38:55;4.13;;;2.17;;
7707;SDS011;3896;48.758;8.888;2022-11-15T13:41:30;2.73;;;1.70;;
7707;SDS011;3896;48.758;8.888;2022-11-15T13:43:58;2.67;;;2.27;;
7707;SDS011;3896;48.758;8.888;2022-11-15T13:46:26;2.47;;;1.90;;
7707;SDS011;3896;48.758;8.888;2022-11-15T13:48:54;2.30;;;1.63;;
7707;SDS011;3896;48.758;8.888;2022-11-15T13:51:30;2.57;;;2.10;;
7707;SDS011;3896;48.758;8.888;2022-11-15T13:56:38;3.07;;;2.67;;
7707;SDS011;3896;48.758;8.888;2022-11-15T13:59:09;3.73;;;2.50;;
7707;SDS011;3896;48.758;8.888;2022-11-15T14:01:41;2.47;;;2.17;;
7707;SDS011;3896;48.758;8.888;2022-11-15T14:04:12;2.40;;;2.20;;
7707;SDS011;3896;48.758;8.888;2022-11-15T14:06:47;2.27;;;2.00;;
7707;SDS011;3896;48.758;8.888;2022-11-15T14:11:51;2.53;;;2.07;;
7707;SDS011;3896;48.758;8.888;2022-11-15T14:14:20;2.37;;;2.13;;
7707;SDS011;3896;48.758;8.888;2022-11-15T14:16:48;3.53;;;1.90;;
7707;SDS011;3896;48.758;8.888;2022-11-15T14:24:33;4.10;;;2.50;;
7707;SDS011;3896;48.758;8.888;2022-11-15T14:27:15;5.37;;;3.07;;
7707;SDS011;3896;48.758;8.888;2022-11-15T14:29:59;6.97;;;4.70;;
7707;SDS011;3896;48.758;8.888;2022-11-15T14:32:29;2.90;;;2.70;;
7707;SDS011;3896;48.758;8.888;2022-11-15T14:35:08;2.83;;;2.47;;
7707;SDS011;3896;48.758;8.888;2022-11-15T14:37:38;2.30;;;1.70;;
7707;SDS011;3896;48.758;8.888;2022-11-15T14:40:04;2.87;;;1.70;;
7707;SDS011;3896;48.758;8.888;2022-11-15T14:42:31;5.07;;;1.63;;
7707;SDS011;3896;48.758;8.888;2022-11-15T14:44:57;3.63;;;2.00;;
7707;SDS011;3896;48.758;8.888;2022-11-15T14:47:23;2.17;;;1.90;;
7707;SDS011;3896;48.758;8.888;2022-11-15T14:49:49;2.60;;;2.20;;
7707;SDS011;3896;48.758;8.888;2022-11-15T14:52:30;4.10;;;1.93;;
7707;SDS011;3896;48.758;8.888;2022-11-15T14:55:01;1.87;;;1.70;;
7707;SDS011;3896;48.758;8.888;2022-11-15T14:57:29;1.90;;;1.80;;
7707;SDS011;3896;48.758;8.888;2022-11-15T14:59:55;3.83;;;3.43;;
7707;SDS011;3896;48.758;8.888;2022-11-15T15:02:22;3.30;;;2.03;;
7707;SDS011;3896;48.758;8.888;2022-11-15T15:04:49;3.40;;;2.27;;
7707;SDS011;3896;48.758;8.888;2022-11-15T15:07:16;2.87;;;2.30;;
7707;SDS011;3896;48.758;8.888;2022-11-15T15:09:43;3.07;;;2.20;;
7707;SDS011;3896;48.758;8.888;2022-11-15T15:12:19;2.70;;;2.50;;
7707;SDS011;3896;48.758;8.888;2022-11-15T15:14:47;2.50;;;2.20;;
7707;SDS011;3896;48.758;8.888;2022-11-15T15:17:13;2.43;;;2.20;;
7707;SDS011;3896;48.758;8.888;2022-11-15T15:19:39;2.50;;;2.30;;
7707;SDS011;3896;48.758;8.888;2022-11-15T15:22:05;2.70;;;2.07;;
7707;SDS011;3896;48.758;8.888;2022-11-15T15:24:34;3.30;;;2.10;;
7707;SDS011;3896;48.758;8.888;2022-11-15T15:26:59;4.40;;;2.70;;
7707;SDS011;3896;48.758;8.888;2022-11-15T15:29:25;2.97;;;2.30;;
7707;SDS011;3896;48.758;8.888;2022-11-15T15:31:50;2.43;;;2.20;;
7707;SDS011;3896;48.758;8.888;2022-11-15T15:34:16;3.17;;;2.13;;
7707;SDS011;3896;48.758;8.888;2022-11-15T15:36:42;3.37;;;2.40;;
7707;SDS011;3896;48.758;8.888;2022-11-15T15:39:08;2.43;;;2.07;;
7707;SDS011;3896;48.758;8.888;2022-11-15T15:41:35;2.30;;;2.10;;
7707;SDS011;3896;48.758;8.888;2022-11-15T15:44:01;2.73;;;2.00;;
7707;SDS011;3896;48.758;8.888;2022-11-15T15:46:26;2.30;;;2.10;;
7707;SDS011;3896;48.758;8.888;2022-11-15T15:48:52;3.10;;;2.33;;
7707;SDS011;3896;48.758;8.888;2022-11-15T15:51:18;2.90;;;2.20;;
7707;SDS011;3896;48.758;8.888;2022-11-15T15:53:43;2.93;;;2.50;;
7707;SDS011;3896;48.758;8.888;2022-11-15T15:56:09;3.97;;;2.30;;
7707;SDS011;3896;48.758;8.888;2022-11-15T15:58:34;2.20;;;2.00;;
7707;SDS011;3896;48.758;8.888;2022-11-15T16:01:00;2.53;;;2.20;;
7707;SDS011;3896;48.758;8.888;2022-11-15T16:03:26;3.00;;;2.20;;
7707;SDS011;3896;48.758;8.888;2022-11-15T16:05:52;2.43;;;2.13;;
7707;SDS011;3896;48.758;8.888;2022-11-15T16:08:19;2.60;;;2.40;;
7707;SDS011;3896;48.758;8.888;2022-11-15T16:10:46;2.37;;;2.00;;
7707;SDS011;3896;48.758;8.888;2022-11-15T16:13:12;4.20;;;2.10;;
7707;SDS011;3896;48.758;8.888;2022-11-15T16:15:38;3.40;;;2.63;;
7707;SDS011;3896;48.758;8.888;2022-11-15T16:18:04;3.93;;;2.30;;
7707;SDS011;3896;48.758;8.888;2022-11-15T16:23:04;2.57;;;2.17;;
7707;SDS011;3896;48.758;8.888;2022-11-15T16:25:37;2.57;;;2.37;;
7707;SDS011;3896;48.758;8.888;2022-11-15T16:28:26;2.03;;;1.83;;
7707;SDS011;3896;48.758;8.888;2022-11-15T16:31:00;3.73;;;2.00;;
7707;SDS011;3896;48.758;8.888;2022-11-15T16:33:26;3.20;;;1.83;;
7707;SDS011;3896;48.758;8.888;2022-11-15T16:35:51;2.60;;;1.83;;
7707;SDS011;3896;48.758;8.888;2022-11-15T16:38:17;4.87;;;1.83;;
7707;SDS011;3896;48.758;8.888;2022-11-15T16:40:43;3.20;;;1.67;;
7707;SDS011;3896;48.758;8.888;2022-11-15T16:43:09;2.77;;;2.00;;
7707;SDS011;3896;48.758;8.888;2022-11-15T16:45:35;5.17;;;1.90;;
7707;SDS011;3896;48.758;8.888;2022-11-15T16:48:01;3.17;;;2.60;;
7707;SDS011;3896;48.758;8.888;2022-11-15T16:50:28;5.90;;;4.17;;
7707;SDS011;3896;48.758;8.888;2022-11-15T16:52:57;9.03;;;5.33;;
7707;SDS011;3896;48.758;8.888;2022-11-15T16:55:25;8.10;;;4.83;;
7707;SDS011;3896;48.758;8.888;2022-11-15T16:57:52;8.07;;;5.60;;
7707;SDS011;3896;48.758;8.888;2022-11-15T17:00:19;8.63;;;6.00;;
7707;SDS011;3896;48.758;8.888;2022-11-15T17:02:46;6.73;;;4.63;;
7707;SDS011;3896;48.758;8.888;2022-11-15T17:05:12;6.63;;;5.03;;
7707;SDS011;3896;48.758;8.888;2022-11-15T17:07:39;8.67;;;4.87;;
7707;SDS011;3896;48.758;8.888;2022-11-15T17:10:05;5.20;;;4.30;;
7707;SDS011;3896;48.758;8.888;2022-11-15T17:12:34;4.40;;;3.57;;
7707;SDS011;3896;48.758;8.888;2022-11-15T17:15:00;5.00;;;4.50;;
7707;SDS011;3896;48.758;8.888;2022-11-15T17:17:26;3.93;;;3.60;;
7707;SDS011;3896;48.758;8.888;2022-11-15T17:19:52;4.30;;;3.90;;
7707;SDS011;3896;48.758;8.888;2022-11-15T17:22:18;5.77;;;3.90;;
7707;SDS011;3896;48.758;8.888;2022-11-15T17:24:44;4.57;;;4.07;;
7707;SDS011;3896;48.758;8.888;2022-11-15T17:27:10;4.43;;;4.03;;
7707;SDS011;3896;48.758;8.888;2022-11-15T17:29:36;5.27;;;4.30;;
7707;SDS011;3896;48.758;8.888;2022-11-15T17:32:02;5.87;;;4.50;;
7707;SDS011;3896;48.758;8.888;2022-11-15T17:34:27;5.70;;;4.33;;
7707;SDS011;3896;48.758;8.888;2022-11-15T17:36:54;7.30;;;4.27;;
7707;SDS011;3896;48.758;8.888;2022-11-15T17:39:19;6.17;;;3.40;;
7707;SDS011;3896;48.758;8.888;2022-11-15T17:41:47;3.80;;;3.20;;
7707;SDS011;3896;48.758;8.888;2022-11-15T17:44:14;5.27;;;3.87;;
7707;SDS011;3896;48.758;8.888;2022-11-15T17:46:39;5.97;;;3.20;;
7707;SDS011;3896;48.758;8.888;2022-11-15T17:49:05;3.80;;;3.10;;
7707;SDS011;3896;48.758;8.888;2022-11-15T17:51:31;6.07;;;3.50;;
7707;SDS011;3896;48.758;8.888;2022-11-15T17:53:57;3.93;;;3.50;;
7707;SDS011;3896;48.758;8.888;2022-11-15T17:56:24;8.97;;;3.77;;